PTMMA SBRP-SBAQ
Flight info
| Callsign | PTMMA |
|---|---|
| Flight time | 0h 25m |
| Altitude | 8000 |
| Route | REPAX ESMIV |
| Aircraft | PA34/L-SD/7000 |
Departure
| Time | 2026-04-27 22:07 |
|---|---|
| Airport | Leite Lopes Airport (SBRP) |
Arrival
| Time | 2026-04-27 22:32 |
|---|---|
| Airport | Araraquara Airport (SBAQ) |
| Time | Latitude | Longitude | Altitude | Speed | Heading |
|---|---|---|---|---|---|
| 2026-04-27 21:48 | -21.13671 | -47.77660 | 1805 ft | 0 kts | 344° |
| 2026-04-27 22:01 | -21.13661 | -47.77647 | 1797 ft | 7 kts | 95° |
| 2026-04-27 22:01 | -21.13668 | -47.77614 | 1805 ft | 0 kts | 103° |
| 2026-04-27 22:03 | -21.13669 | -47.77605 | 1805 ft | 5 kts | 84° |
| 2026-04-27 22:03 | -21.13683 | -47.77566 | 1804 ft | 7 kts | 83° |
| 2026-04-27 22:04 | -21.13671 | -47.77516 | 1802 ft | 8 kts | 22° |
| 2026-04-27 22:04 | -21.13584 | -47.77531 | 1805 ft | 18 kts | 346° |
| 2026-04-27 22:04 | -21.13430 | -47.77578 | 1802 ft | 28 kts | 344° |
| 2026-04-27 22:04 | -21.13227 | -47.77645 | 1804 ft | 31 kts | 342° |
| 2026-04-27 22:05 | -21.13012 | -47.77714 | 1803 ft | 38 kts | 342° |
| 2026-04-27 22:05 | -21.12762 | -47.77795 | 1802 ft | 36 kts | 343° |
| 2026-04-27 22:05 | -21.12560 | -47.77747 | 1801 ft | 31 kts | 42° |
| 2026-04-27 22:05 | -21.12568 | -47.77678 | 1802 ft | 12 kts | 161° |
| 2026-04-27 22:06 | -21.12646 | -47.77654 | 1802 ft | 12 kts | 165° |
| 2026-04-27 22:06 | -21.12901 | -47.77574 | 1805 ft | 70 kts | 164° |
| 2026-04-27 22:06 | -21.13493 | -47.77378 | 1833 ft | 101 kts | 163° |
| 2026-04-27 22:06 | -21.14197 | -47.77142 | 1938 ft | 108 kts | 163° |
| 2026-04-27 22:07 | -21.14925 | -47.76885 | 2117 ft | 111 kts | 163° |
| 2026-04-27 22:07 | -21.15666 | -47.76607 | 2423 ft | 113 kts | 163° |
| 2026-04-27 22:07 | -21.16431 | -47.76311 | 2590 ft | 123 kts | 163° |
| 2026-04-27 22:07 | -21.17243 | -47.75986 | 2712 ft | 124 kts | 163° |
| 2026-04-27 22:08 | -21.18097 | -47.75637 | 2860 ft | 130 kts | 162° |
| 2026-04-27 22:08 | -21.18882 | -47.75298 | 3270 ft | 118 kts | 163° |
| 2026-04-27 22:08 | -21.19668 | -47.74947 | 3465 ft | 128 kts | 163° |
| 2026-04-27 22:08 | -21.20527 | -47.74577 | 3533 ft | 142 kts | 163° |
| 2026-04-27 22:09 | -21.21481 | -47.74178 | 3535 ft | 152 kts | 163° |
| 2026-04-27 22:09 | -21.22462 | -47.73752 | 3632 ft | 154 kts | 160° |
| 2026-04-27 22:09 | -21.23461 | -47.73289 | 3746 ft | 158 kts | 160° |
| 2026-04-27 22:09 | -21.24499 | -47.72926 | 3851 ft | 156 kts | 171° |
| 2026-04-27 22:10 | -21.25572 | -47.72830 | 3962 ft | 154 kts | 190° |
| 2026-04-27 22:10 | -21.26635 | -47.73015 | 4081 ft | 156 kts | 192° |
| 2026-04-27 22:10 | -21.27665 | -47.73311 | 4182 ft | 152 kts | 212° |
| 2026-04-27 22:10 | -21.28332 | -47.74163 | 4278 ft | 151 kts | 245° |
| 2026-04-27 22:11 | -21.28736 | -47.75205 | 4413 ft | 152 kts | 247° |
| 2026-04-27 22:11 | -21.29200 | -47.76225 | 4529 ft | 153 kts | 244° |
| 2026-04-27 22:11 | -21.29690 | -47.77237 | 4683 ft | 152 kts | 244° |
| 2026-04-27 22:11 | -21.30168 | -47.78217 | 4869 ft | 149 kts | 244° |
| 2026-04-27 22:12 | -21.30653 | -47.79216 | 5056 ft | 148 kts | 244° |
| 2026-04-27 22:12 | -21.31120 | -47.80174 | 5242 ft | 147 kts | 244° |
| 2026-04-27 22:12 | -21.31596 | -47.81154 | 5431 ft | 151 kts | 244° |
| 2026-04-27 22:12 | -21.32082 | -47.82153 | 5627 ft | 151 kts | 244° |
| 2026-04-27 22:13 | -21.32569 | -47.83155 | 5821 ft | 151 kts | 244° |
| 2026-04-27 22:13 | -21.33055 | -47.84158 | 6012 ft | 151 kts | 245° |
| 2026-04-27 22:13 | -21.33542 | -47.85158 | 6203 ft | 151 kts | 245° |
| 2026-04-27 22:13 | -21.34029 | -47.86162 | 6401 ft | 152 kts | 245° |
| 2026-04-27 22:14 | -21.34518 | -47.87170 | 6585 ft | 152 kts | 245° |
| 2026-04-27 22:14 | -21.35002 | -47.88167 | 6768 ft | 153 kts | 245° |
| 2026-04-27 22:14 | -21.35497 | -47.89187 | 6945 ft | 153 kts | 245° |
| 2026-04-27 22:14 | -21.35989 | -47.90200 | 7136 ft | 153 kts | 245° |
| 2026-04-27 22:15 | -21.36480 | -47.91215 | 7325 ft | 153 kts | 245° |
| 2026-04-27 22:15 | -21.36974 | -47.92232 | 7514 ft | 154 kts | 245° |
| 2026-04-27 22:15 | -21.37469 | -47.93252 | 7705 ft | 154 kts | 245° |
| 2026-04-27 22:15 | -21.37965 | -47.94276 | 7895 ft | 155 kts | 245° |
| 2026-04-27 22:16 | -21.38462 | -47.95301 | 8086 ft | 155 kts | 245° |
| 2026-04-27 22:16 | -21.38958 | -47.96325 | 8280 ft | 155 kts | 245° |
| 2026-04-27 22:16 | -21.39457 | -47.97355 | 8478 ft | 155 kts | 245° |
| 2026-04-27 22:16 | -21.39956 | -47.98385 | 8670 ft | 156 kts | 245° |
| 2026-04-27 22:17 | -21.40466 | -47.99439 | 8686 ft | 167 kts | 245° |
| 2026-04-27 22:17 | -21.41016 | -48.00583 | 8577 ft | 177 kts | 245° |
| 2026-04-27 22:17 | -21.41594 | -48.01773 | 8463 ft | 182 kts | 244° |
| 2026-04-27 22:17 | -21.42174 | -48.02969 | 8351 ft | 184 kts | 244° |
| 2026-04-27 22:18 | -21.42765 | -48.04189 | 8231 ft | 185 kts | 244° |
| 2026-04-27 22:18 | -21.43355 | -48.05405 | 8113 ft | 175 kts | 244° |
| 2026-04-27 22:18 | -21.43885 | -48.06490 | 7921 ft | 157 kts | 244° |
| 2026-04-27 22:18 | -21.44370 | -48.07496 | 7670 ft | 148 kts | 245° |
| 2026-04-27 22:19 | -21.44837 | -48.08469 | 7424 ft | 145 kts | 245° |
| 2026-04-27 22:19 | -21.45299 | -48.09424 | 7183 ft | 143 kts | 245° |
| 2026-04-27 22:19 | -21.45755 | -48.10370 | 6945 ft | 142 kts | 245° |
| 2026-04-27 22:19 | -21.46207 | -48.11306 | 6713 ft | 141 kts | 245° |
| 2026-04-27 22:20 | -21.46657 | -48.12235 | 6485 ft | 140 kts | 245° |
| 2026-04-27 22:20 | -21.47102 | -48.13159 | 6237 ft | 139 kts | 245° |
| 2026-04-27 22:20 | -21.47542 | -48.14070 | 5995 ft | 139 kts | 245° |
| 2026-04-27 22:20 | -21.47988 | -48.14993 | 5751 ft | 138 kts | 245° |
| 2026-04-27 22:21 | -21.48427 | -48.15902 | 5554 ft | 135 kts | 245° |
| 2026-04-27 22:21 | -21.48851 | -48.16780 | 5409 ft | 130 kts | 245° |
| 2026-04-27 22:21 | -21.49267 | -48.17641 | 5264 ft | 129 kts | 245° |
| 2026-04-27 22:21 | -21.49676 | -48.18490 | 5118 ft | 128 kts | 244° |
| 2026-04-27 22:22 | -21.50086 | -48.19339 | 4973 ft | 127 kts | 244° |
| 2026-04-27 22:22 | -21.50489 | -48.20175 | 4833 ft | 126 kts | 244° |
| 2026-04-27 22:22 | -21.50890 | -48.21008 | 4698 ft | 125 kts | 244° |
| 2026-04-27 22:22 | -21.51285 | -48.21818 | 4574 ft | 123 kts | 243° |
| 2026-04-27 22:23 | -21.51953 | -48.22378 | 4411 ft | 126 kts | 196° |
| 2026-04-27 22:23 | -21.52812 | -48.22264 | 4271 ft | 129 kts | 164° |
| 2026-04-27 22:23 | -21.53666 | -48.21971 | 4164 ft | 129 kts | 166° |
| 2026-04-27 22:23 | -21.54539 | -48.21711 | 4051 ft | 131 kts | 167° |
| 2026-04-27 22:24 | -21.55422 | -48.21454 | 3931 ft | 132 kts | 167° |
| 2026-04-27 22:24 | -21.56310 | -48.21198 | 3814 ft | 132 kts | 167° |
| 2026-04-27 22:24 | -21.57182 | -48.20942 | 3772 ft | 130 kts | 167° |
| 2026-04-27 22:24 | -21.58082 | -48.20684 | 3753 ft | 136 kts | 167° |
| 2026-04-27 22:25 | -21.59010 | -48.20415 | 3739 ft | 140 kts | 167° |
| 2026-04-27 22:25 | -21.59962 | -48.20139 | 3726 ft | 142 kts | 167° |
| 2026-04-27 22:25 | -21.60928 | -48.20046 | 3678 ft | 140 kts | 196° |
| 2026-04-27 22:25 | -21.61779 | -48.20540 | 3652 ft | 139 kts | 215° |
| 2026-04-27 22:26 | -21.62588 | -48.21083 | 3626 ft | 138 kts | 212° |
| 2026-04-27 22:26 | -21.63417 | -48.21571 | 3618 ft | 133 kts | 210° |
| 2026-04-27 22:26 | -21.64231 | -48.22027 | 3619 ft | 131 kts | 210° |
| 2026-04-27 22:26 | -21.65039 | -48.22474 | 3615 ft | 130 kts | 210° |
| 2026-04-27 22:27 | -21.65850 | -48.22906 | 3611 ft | 130 kts | 205° |
| 2026-04-27 22:27 | -21.66734 | -48.22852 | 3610 ft | 132 kts | 156° |
| 2026-04-27 22:27 | -21.67503 | -48.22321 | 3618 ft | 131 kts | 148° |
| 2026-04-27 22:27 | -21.68281 | -48.21800 | 3569 ft | 136 kts | 150° |
| 2026-04-27 22:28 | -21.69099 | -48.21265 | 3460 ft | 138 kts | 150° |
| 2026-04-27 22:28 | -21.69897 | -48.20739 | 3345 ft | 131 kts | 150° |
| 2026-04-27 22:28 | -21.70625 | -48.20259 | 3346 ft | 120 kts | 150° |
| 2026-04-27 22:28 | -21.71317 | -48.19807 | 3348 ft | 111 kts | 151° |
| 2026-04-27 22:29 | -21.71960 | -48.19385 | 3347 ft | 105 kts | 150° |
| 2026-04-27 22:29 | -21.72569 | -48.18983 | 3347 ft | 102 kts | 151° |
| 2026-04-27 22:29 | -21.73176 | -48.18588 | 3352 ft | 101 kts | 150° |
| 2026-04-27 22:29 | -21.73779 | -48.18193 | 3351 ft | 101 kts | 150° |
| 2026-04-27 22:30 | -21.74381 | -48.17798 | 3350 ft | 101 kts | 151° |
| 2026-04-27 22:30 | -21.74978 | -48.17397 | 3287 ft | 106 kts | 148° |
| 2026-04-27 22:30 | -21.75592 | -48.16933 | 3230 ft | 105 kts | 146° |
| 2026-04-27 22:30 | -21.76195 | -48.16504 | 3212 ft | 105 kts | 152° |
| 2026-04-27 22:31 | -21.76838 | -48.16129 | 3174 ft | 105 kts | 154° |
| 2026-04-27 22:31 | -21.77497 | -48.15743 | 3049 ft | 111 kts | 152° |
| 2026-04-27 22:31 | -21.78160 | -48.15322 | 2925 ft | 111 kts | 152° |
| 2026-04-27 22:31 | -21.78819 | -48.14884 | 2759 ft | 112 kts | 149° |
| 2026-04-27 22:32 | -21.79463 | -48.14450 | 2607 ft | 103 kts | 150° |
| 2026-04-27 22:32 | -21.80034 | -48.14074 | 2413 ft | 93 kts | 150° |
| 2026-04-27 22:32 | -21.80558 | -48.13732 | 2284 ft | 81 kts | 147° |
| 2026-04-27 22:32 | -21.80849 | -48.13536 | 2292 ft | 1 kts | 151° |
| 2026-04-27 22:33 | -21.80871 | -48.13523 | 2293 ft | 11 kts | 151° |
| 2026-04-27 22:33 | -21.80932 | -48.13485 | 2296 ft | 8 kts | 190° |
| 2026-04-27 22:33 | -21.80892 | -48.13521 | 2296 ft | 15 kts | 333° |
| 2026-04-27 22:33 | -21.80790 | -48.13580 | 2294 ft | 18 kts | 330° |
| 2026-04-27 22:34 | -21.80677 | -48.13652 | 2283 ft | 20 kts | 328° |
| 2026-04-27 22:34 | -21.80558 | -48.13731 | 2280 ft | 20 kts | 326° |
| 2026-04-27 22:34 | -21.80532 | -48.13823 | 2277 ft | 15 kts | 239° |
| 2026-04-27 22:34 | -21.80551 | -48.13916 | 2277 ft | 14 kts | 317° |
| 2026-04-27 22:35 | -21.80536 | -48.13981 | 2277 ft | 11 kts | 152° |
| 2026-04-27 22:35 | -21.80548 | -48.13973 | 2277 ft | 0 kts | 139° |